AirNav   Air Wisconsin Airman Trainee
 
 1010 users online  

23Y Murdock Municipal Airport
Murdock, Minnesota, USA

GOING TO MURDOCK?


FAA INFORMATION EFFECTIVE 28 FEBRUARY 2019

Location

FAA Identifier: 23Y
Lat/Long: 45-13-19.8570N / 095-24-04.0890W
45-13.330950N / 095-24.068150W
45.2221825 / -95.4011358
(estimated)
Elevation: 1082 ft. / 330 m (estimated)
Variation: 05E (1985)
Time zone: UTC -6 (UTC -5 during Daylight Saving Time)
Zip code: 56271

Airport Operations

Airport use: Open to the public
Activation date: 04/1972
Control tower: no
ARTCC: MINNEAPOLIS CENTER
FSS: PRINCETON FLIGHT SERVICE STATION
NOTAMs facility: PNM (NOTAM-D service available)
Attendance: UNATNDD
Wind indicator: yes
Segmented circle: no

Airport Communications

CTAF: 122.9
WX AWOS-3 at BBB (12 nm NW): 118.45 (320-843-3242)
WX AWOS-3 at BDH (13 nm SE): 113.7 (320-235-8287)

Nearby radio navigation aids

VOR radial/distance  VOR name  Freq  Var
BDHr294/13.2WILLMAR VOR/DME113.7004E
MVEr036/19.9MONTEVIDEO VOR/DME111.6005E
MOXr126/31.6MORRIS VOR/DME109.6005E

 
NDB name  Hdg/Dist  Freq  Var  ID
BENSON116/12.323905EBBB -... -... -...
GLENWOOD185/25.634603EGHW --. .... .--
APPLETON086/25.735605EAQP .- --.- .--.

Airport Services

Parking: tiedowns
Airframe service: NONE
Powerplant service: NONE
Bottled oxygen: NONE
Bulk oxygen: NONE

Runway Information

Runway 12/30

Dimensions: 3415 x 150 ft. / 1041 x 46 m
Surface: turf, in good condition
Runway edge markings: RY 12/30 MKD WITH CONES.
RUNWAY 12  RUNWAY 30
Latitude: 45-13.463667N45-13.214833N
Longitude: 095-24.416333W095-23.703167W
Elevation: 1080.0 ft.1080.0 ft.
Gradient: 0.1%0.1%
Traffic pattern: leftleft

Airport Ownership and Management from official FAA records

Ownership: Publicly-owned
Owner: CITY OF MURDOCK
300 FREDERICK ST., P.O. BOX 130
MURDOCK, MN 56271
Phone 320-875-2112
Manager: ADAM SIMMONDS
300 FREDERICK ST, P.O. BOX 130
MURDOCK, MN 56271
Phone 320-875-4841

Airport Operational Statistics

Aircraft operations: avg 42/month *
80% local general aviation
20% transient general aviation
* for 12-month period ending 30 April 2018

Additional Remarks

ARPT NOT PLOWED WINTER MONTHS.
ANIMAL HOLES ALG RWY.

Instrument Procedures

There are no published instrument procedures at 23Y.

Some nearby airports with instrument procedures:

KBBB - Benson Municipal Airport (12 nm NW)
KBDH - Willmar Municipal Airport-John L Rice Fiel (13 nm SE)
KMVE - Montevideo-Chippewa County Airport (20 nm SW)
KAQP - Appleton Municipal Airport (26 nm W)
KGHW - Glenwood Municipal Airport (26 nm N)
 
Loc | Ops | Rwys | IFR | FBO | Links
Com | Nav | Svcs | Stats | Notes
Area around 23Y (Murdock Municipal Airport)
 
Road maps at: MapQuest Bing Google
 
Aerial photo
No photo
 
Sectional chart

 
Airport distance calculator
Flying to Murdock Municipal Airport? Find the distance to fly.

From to 23Y

Sunrise and sunset
Times for 26-Mar-2019
 Local
(UTC-5)
 Zulu
(UTC)
Morning civil twilight06:4511:45
Sunrise07:1412:14
Sunset19:4000:40
Evening civil twilight20:1001:10

Current date and time
Zulu (UTC)  26-Mar-2019 23:28:50
Local (UTC-5)  26-Mar-2019 18:28:50
 
METAR
KBBB 
12nm NW 
262255Z AUTO 19010G14KT 10SM BKN019 07/04 A3015 RMK AO2
KBDH 
13nm SE 
262256Z AUTO 15010KT 10SM OVC026 08/04 A3018 RMK AO2
KMVE 
20nm SW 
262255Z AUTO 21008KT 10SM OVC019 08/04 A3015 RMK AO2
TAF
KAXN 
39nm N 
262226Z 2622/2718 17010KT P6SM BKN020 FM270400 17011KT P6SM SCT035 FM270600 17011KT 6SM BR FEW015 BKN050 WS020/21045KT FM270900 17013KT P6SM BKN020 FM271500 24012KT 6SM BR OVC012
KRWF 
43nm S 
262227Z 2622/2718 17010KT P6SM BKN025 FM270300 17012KT P6SM SCT035 BKN250 FM270700 17014G21KT P6SM SCT200 WS020/21045KT FM271500 19016G26KT P6SM SCT150
NOTAMs
Click for the latest NOTAMs
NOTAMs are issued by the DoD/FAA and will open in a separate window not controlled by AirNav.

 

 
 

Would you like to see your business listed on this page?

 If your business provides an interesting product or service to pilots, flight crews, aircraft, or users of the Murdock Municipal Airport, you should consider listing it here.  To start the listing process, click on the button below
 
Add a business
 

Other Pages about Murdock Municipal Airport

Update a link
 
Copyright © AirNav, LLC. All rights reserved. Privacy Policy  Contact